createdAt,value
2023-02-13T00:00:34.451Z,144910.31
2023-02-13T00:03:01.816Z,144901.81
2023-02-13T00:05:30.090Z,144893.31
2023-02-13T00:07:57.478Z,144847.28
2023-02-13T00:10:24.745Z,144842.41
2023-02-13T00:12:51.774Z,144903.00
2023-02-13T00:15:18.950Z,144861.81
2023-02-13T00:17:45.981Z,144927.25
2023-02-13T00:20:13.398Z,144926.03
2023-02-13T00:22:40.501Z,144912.72
2023-02-13T00:25:08.047Z,144915.16
2023-02-13T00:27:35.073Z,144883.63
2023-02-13T00:30:04.079Z,144890.88
2023-02-13T00:32:31.746Z,144880.00
2023-02-13T00:34:58.767Z,144910.31
2023-02-13T00:37:26.187Z,144824.25
2023-02-13T00:39:53.338Z,144921.19
2023-02-13T00:42:24.012Z,144910.31
2023-02-13T00:44:51.322Z,144924.84
2023-02-13T00:47:19.142Z,144933.34
2023-02-13T00:49:46.585Z,144932.09
2023-02-13T00:52:13.960Z,144907.88
2023-02-13T00:54:40.949Z,144906.66
2023-02-13T00:57:08.054Z,144876.34
2023-02-13T00:59:35.206Z,144920.00
2023-02-13T01:02:02.306Z,144910.31
2023-02-13T01:04:29.393Z,144837.56
2023-02-13T01:06:57.731Z,144898.16
2023-02-13T01:09:25.459Z,144900.56
2023-02-13T01:11:52.670Z,144875.16
2023-02-13T01:14:19.841Z,144839.97
2023-02-13T01:16:48.468Z,144807.25
2023-02-13T01:19:15.835Z,144903.00
2023-02-13T01:21:43.959Z,144909.06
2023-02-13T01:24:11.015Z,144900.56
2023-02-13T01:26:38.134Z,144890.88
2023-02-13T01:29:05.219Z,144893.31
2023-02-13T01:31:33.206Z,144884.84
2023-02-13T01:34:00.268Z,144866.66
2023-02-13T01:36:27.416Z,144776.94
2023-02-13T01:38:56.869Z,144761.22
2023-02-13T01:41:29.123Z,144847.28
2023-02-13T01:44:01.644Z,144797.56
2023-02-13T01:46:35.417Z,144887.22
2023-02-13T01:49:13.449Z,144791.47
2023-02-13T01:51:41.650Z,144873.94
2023-02-13T01:54:17.499Z,144738.19
2023-02-13T01:56:53.942Z,144861.81
2023-02-13T01:59:40.040Z,144808.47
2023-02-13T02:02:07.600Z,144890.88
2023-02-13T02:04:38.459Z,144867.84
2023-02-13T02:07:17.898Z,144867.84
2023-02-13T02:09:48.033Z,144886.03
2023-02-13T02:12:25.638Z,144866.66
2023-02-13T02:14:55.565Z,144728.50
2023-02-13T02:17:25.369Z,144893.31
2023-02-13T02:20:03.793Z,144881.19
2023-02-13T02:23:08.529Z,144888.47
2023-02-13T02:26:15.477Z,144882.38
2023-02-13T02:29:01.657Z,144866.66
2023-02-13T02:32:01.383Z,144758.78
2023-02-13T02:34:47.915Z,144825.44
2023-02-13T02:37:30.123Z,144847.28
2023-02-13T02:40:09.616Z,144852.13
2023-02-13T02:42:48.669Z,144838.78
2023-02-13T02:45:45.201Z,144864.22
2023-02-13T02:48:50.630Z,144852.13
2023-02-13T02:51:27.009Z,144839.97
2023-02-13T02:54:28.798Z,144694.56
2023-02-13T02:57:02.485Z,144810.91
2023-02-13T02:59:51.304Z,144833.94
2023-02-13T03:02:47.683Z,144835.13
2023-02-13T03:06:04.334Z,144839.97
2023-02-13T03:08:50.060Z,144803.63
2023-02-13T03:11:35.650Z,144839.97
2023-02-13T03:14:06.967Z,144858.16
2023-02-13T03:16:52.264Z,144849.66
2023-02-13T03:19:56.036Z,144852.13
2023-02-13T03:22:49.126Z,144849.66
2023-02-13T03:25:35.479Z,144844.81
2023-02-13T03:28:46.339Z,144825.44
2023-02-13T03:31:24.356Z,144823.00
2023-02-13T03:34:11.095Z,144837.56
2023-02-13T03:37:06.052Z,144838.78
2023-02-13T03:39:46.598Z,144836.34
2023-02-13T03:42:44.914Z,144827.84
2023-02-13T03:45:36.006Z,144841.19
2023-02-13T03:48:09.908Z,144718.78
2023-02-13T03:50:42.862Z,144863.00
2023-02-13T03:53:13.366Z,144852.13
2023-02-13T03:56:04.744Z,144844.81
2023-02-13T03:58:57.596Z,144871.50
2023-02-13T04:01:27.904Z,144781.78
2023-02-13T04:04:13.516Z,144849.66
2023-02-13T04:06:47.627Z,144776.94
2023-02-13T04:09:15.736Z,144861.81
2023-02-13T04:12:16.655Z,144852.13
2023-02-13T04:14:49.775Z,144838.78
2023-02-13T04:17:27.069Z,144767.25
2023-02-13T04:19:54.742Z,144766.06
2023-02-13T04:22:21.868Z,144818.16
2023-02-13T04:24:48.979Z,144808.47
2023-02-13T04:27:17.391Z,144837.56
2023-02-13T04:29:44.571Z,144798.78
2023-02-13T04:32:11.788Z,144816.97
2023-02-13T04:34:39.153Z,144830.28
2023-02-13T04:37:06.224Z,144853.31
2023-02-13T04:39:33.262Z,144849.66
2023-02-13T04:42:00.724Z,144827.84
2023-02-13T04:44:27.787Z,144837.56
2023-02-13T04:46:54.834Z,144852.13
2023-02-13T04:49:21.976Z,144820.59
2023-02-13T04:51:49.109Z,144841.19
2023-02-13T04:54:16.236Z,144810.91
2023-02-13T04:56:44.483Z,144869.06
2023-02-13T04:59:11.460Z,144849.66
2023-02-13T05:01:38.461Z,144844.81
2023-02-13T05:04:05.617Z,144818.16
2023-02-13T05:06:33.034Z,144860.59
2023-02-13T05:09:00.037Z,144852.13
2023-02-13T05:11:27.040Z,144815.75
2023-02-13T05:13:54.079Z,144842.41
2023-02-13T05:16:21.155Z,144839.97
2023-02-13T05:18:48.377Z,144821.81
2023-02-13T05:21:33.799Z,144830.28
2023-02-13T05:24:01.176Z,144833.94
2023-02-13T05:26:28.204Z,144774.56
2023-02-13T05:29:13.758Z,144820.59
2023-02-13T05:31:40.860Z,144818.16
2023-02-13T05:34:08.001Z,144781.78
2023-02-13T05:36:35.383Z,144844.81
2023-02-13T05:39:02.453Z,144825.44
2023-02-13T05:41:29.490Z,144832.69
2023-02-13T05:43:56.690Z,144835.13
2023-02-13T05:46:23.810Z,144824.25
2023-02-13T05:48:52.035Z,144832.69
2023-02-13T05:51:19.916Z,144804.81
2023-02-13T05:53:47.060Z,144789.09
2023-02-13T05:56:14.171Z,144624.28
2023-02-13T05:58:41.623Z,144592.78
2023-02-13T06:01:08.896Z,144727.28
2023-02-13T06:03:35.998Z,144587.94
2023-02-13T06:06:03.384Z,144580.66
2023-02-13T06:08:30.466Z,144597.63
2023-02-13T06:10:57.790Z,144551.63
2023-02-13T06:13:25.708Z,144609.72
2023-02-13T06:15:53.142Z,144556.47
2023-02-13T06:18:20.245Z,144508.00
2023-02-13T06:20:47.334Z,144585.50
2023-02-13T06:23:14.670Z,144551.63
2023-02-13T06:25:41.673Z,144524.97
2023-02-13T06:28:08.702Z,144501.97
2023-02-13T06:30:35.827Z,144488.66
2023-02-13T06:33:02.909Z,144468.03
2023-02-13T06:35:30.072Z,144330.09
2023-02-13T06:37:57.064Z,144403.91
2023-02-13T06:40:24.218Z,144302.25
2023-02-13T06:42:51.307Z,144374.88
2023-02-13T06:45:18.418Z,144396.66
2023-02-13T06:47:47.856Z,144428.09
2023-02-13T06:50:16.427Z,144413.56
2023-02-13T06:52:51.310Z,144409.94
2023-02-13T06:55:18.864Z,144372.44
2023-02-13T06:57:45.992Z,144324.06
2023-02-13T07:00:15.058Z,144399.06
2023-02-13T07:02:43.735Z,144388.19
2023-02-13T07:05:11.582Z,144234.50
2023-02-13T07:07:41.183Z,144391.78
2023-02-13T07:10:13.180Z,144388.19
2023-02-13T07:12:40.831Z,144380.91
2023-02-13T07:15:08.421Z,144353.06
2023-02-13T07:17:35.538Z,144315.56
2023-02-13T07:20:04.561Z,144339.75
2023-02-13T07:22:32.874Z,144189.75
2023-02-13T07:25:00.770Z,144324.06
2023-02-13T07:27:30.976Z,144362.75
2023-02-13T07:29:58.027Z,144373.63
2023-02-13T07:32:25.601Z,144396.66
2023-02-13T07:35:01.609Z,144319.16
2023-02-13T07:37:31.205Z,144416.00
2023-02-13T07:39:58.253Z,144441.41
2023-02-13T07:42:25.378Z,144458.38
2023-02-13T07:44:52.417Z,144454.72
2023-02-13T07:47:20.299Z,144504.38
2023-02-13T07:49:47.453Z,144508.00
2023-02-13T07:52:14.638Z,144508.00
2023-02-13T07:54:51.309Z,144485.00
2023-02-13T07:57:18.628Z,144561.31
2023-02-13T07:59:45.620Z,144476.53
2023-02-13T08:02:14.418Z,144568.53
2023-02-13T08:04:46.041Z,144598.84
2023-02-13T08:07:14.360Z,144609.72
2023-02-13T08:10:00.065Z,144522.53
2023-02-13T08:12:27.443Z,144663.03
2023-02-13T08:14:54.715Z,144688.53
2023-02-13T08:17:21.738Z,144724.88
2023-02-13T08:19:49.494Z,144743.03
2023-02-13T08:22:16.623Z,144793.94
2023-02-13T08:24:43.616Z,144824.25
2023-02-13T08:27:13.256Z,144825.44
2023-02-13T08:29:40.565Z,144837.56
2023-02-13T08:32:08.289Z,144859.34
2023-02-13T08:34:35.421Z,144859.34
2023-02-13T08:37:03.411Z,144883.63
2023-02-13T08:39:30.476Z,144915.16
2023-02-13T08:41:57.534Z,144894.53
2023-02-13T08:44:24.881Z,144835.13
2023-02-13T08:46:52.346Z,144804.81
2023-02-13T08:49:19.520Z,144932.09
2023-02-13T08:51:46.732Z,144927.25
2023-02-13T08:54:13.729Z,144944.22
2023-02-13T08:56:46.580Z,144806.06
2023-02-13T08:59:13.781Z,144978.16
2023-02-13T09:01:41.503Z,144888.47
2023-02-13T09:04:08.632Z,145012.13
2023-02-13T09:06:35.721Z,145046.06
2023-02-13T09:09:05.279Z,145074.00
2023-02-13T09:11:32.441Z,145087.31
2023-02-13T09:13:59.451Z,145048.53
2023-02-13T09:16:26.527Z,145148.00
2023-02-13T09:18:53.671Z,145174.69
2023-02-13T09:21:23.554Z,145191.66
2023-02-13T09:23:52.947Z,145181.94
2023-02-13T09:26:20.854Z,145165.00
2023-02-13T09:28:53.990Z,145220.78
2023-02-13T09:31:21.359Z,145179.53
2023-02-13T09:33:49.909Z,145230.50
2023-02-13T09:36:20.299Z,145259.66
2023-02-13T09:38:51.458Z,145298.50
2023-02-13T09:41:23.145Z,145276.66
2023-02-13T09:44:38.330Z,145311.88
2023-02-13T09:47:29.786Z,145285.16
2023-02-13T09:50:06.592Z,145290.00
2023-02-13T09:52:37.131Z,145311.88
2023-02-13T09:55:18.322Z,145246.25
2023-02-13T09:58:16.382Z,145359.19
2023-02-13T10:00:47.039Z,145317.91
2023-02-13T10:03:19.572Z,145311.88
2023-02-13T10:06:09.444Z,145388.34
2023-02-13T10:09:06.658Z,145435.69
2023-02-13T10:11:52.533Z,145483.03
2023-02-13T10:14:21.628Z,145502.50
2023-02-13T10:16:58.929Z,145514.59
2023-02-13T10:19:41.372Z,145548.66
2023-02-13T10:22:26.823Z,145575.38
2023-02-13T10:25:01.303Z,145580.22
2023-02-13T10:27:38.947Z,145580.22
2023-02-13T10:30:17.078Z,145495.19
2023-02-13T10:32:47.038Z,145609.38
2023-02-13T10:35:24.767Z,145623.94
2023-02-13T10:37:56.000Z,145623.94
2023-02-13T10:40:32.641Z,145574.13
2023-02-13T10:43:10.473Z,145640.97
2023-02-13T10:45:55.534Z,145637.31
2023-02-13T10:48:46.227Z,145562.00
2023-02-13T10:51:27.346Z,145645.81
2023-02-13T10:54:16.920Z,145512.19
2023-02-13T10:56:55.400Z,145615.44
2023-02-13T10:59:49.253Z,145687.13
2023-02-13T11:02:28.872Z,145689.56
2023-02-13T11:05:02.582Z,145670.09
2023-02-13T11:07:30.667Z,145699.34
2023-02-13T11:10:13.191Z,145712.72
2023-02-13T11:12:40.277Z,145709.06
2023-02-13T11:15:20.074Z,145719.97
2023-02-13T11:17:47.802Z,145738.19
2023-02-13T11:20:44.391Z,145743.06
2023-02-13T11:23:29.763Z,145747.97
2023-02-13T11:26:08.655Z,145799.00
2023-02-13T11:28:48.186Z,145805.06
2023-02-13T11:31:29.753Z,145823.31
2023-02-13T11:33:59.161Z,145820.84
2023-02-13T11:36:32.684Z,145927.88
2023-02-13T11:39:06.004Z,146351.34
2023-02-13T11:41:42.439Z,146458.53
2023-02-13T11:44:35.565Z,146253.94
2023-02-13T11:47:16.080Z,146127.41
2023-02-13T11:50:27.218Z,146060.44
2023-02-13T11:53:07.942Z,146014.22
2023-02-13T11:55:38.397Z,145896.25
2023-02-13T11:58:11.442Z,145983.81
2023-02-13T12:00:41.425Z,145961.91
2023-02-13T12:03:30.383Z,145972.88
2023-02-13T12:06:23.861Z,145978.94
2023-02-13T12:09:00.141Z,145983.81
2023-02-13T12:11:30.138Z,145978.94
2023-02-13T12:13:58.133Z,145988.66
2023-02-13T12:16:38.399Z,145993.53
2023-02-13T12:19:13.203Z,146003.25
2023-02-13T12:22:14.957Z,146010.56
2023-02-13T12:25:07.091Z,146000.84
2023-02-13T12:28:06.437Z,146003.25
2023-02-13T12:31:15.735Z,146017.88
2023-02-13T12:34:07.875Z,146041.00
2023-02-13T12:36:53.856Z,146066.50
2023-02-13T12:39:34.491Z,146092.13
2023-02-13T12:42:07.255Z,146084.81
2023-02-13T12:45:03.003Z,146088.47
2023-02-13T12:47:36.052Z,146105.50
2023-02-13T12:50:22.269Z,146111.56
2023-02-13T12:53:08.556Z,146115.22
2023-02-13T12:56:06.564Z,146146.88
2023-02-13T12:58:51.678Z,146161.47
2023-02-13T13:01:27.951Z,146168.78
2023-02-13T13:04:04.091Z,146178.50
2023-02-13T13:06:40.878Z,146187.03
2023-02-13T13:09:31.100Z,146156.59
2023-02-13T13:12:24.946Z,146160.25
2023-02-13T13:15:31.071Z,146168.78
2023-02-13T13:18:13.451Z,146166.31
2023-02-13T13:21:05.238Z,146173.66
2023-02-13T13:23:48.424Z,146160.25
2023-02-13T13:26:46.458Z,146188.25
2023-02-13T13:29:22.996Z,146180.91
2023-02-13T13:31:56.089Z,146114.03
2023-02-13T13:34:53.755Z,146188.25
2023-02-13T13:37:44.248Z,146190.69
2023-02-13T13:40:25.565Z,146155.41
2023-02-13T13:43:26.190Z,146197.97
2023-02-13T13:46:15.982Z,146194.31
2023-02-13T13:49:07.798Z,146197.97
2023-02-13T13:51:34.835Z,146200.44
2023-02-13T13:54:04.973Z,146216.22
2023-02-13T13:56:53.676Z,146219.88
2023-02-13T13:59:43.704Z,146225.97
2023-02-13T14:02:16.837Z,146227.22
2023-02-13T14:05:20.790Z,146234.47
2023-02-13T14:08:33.164Z,146227.22
2023-02-13T14:11:02.845Z,146212.56
2023-02-13T14:13:35.977Z,145988.66
2023-02-13T14:16:04.864Z,146099.44
2023-02-13T14:18:32.594Z,146094.53
2023-02-13T14:21:02.701Z,146204.03
2023-02-13T14:24:24.051Z,146224.75
2023-02-13T14:27:05.074Z,146118.88
2023-02-13T14:29:34.213Z,146210.16
2023-02-13T14:32:14.807Z,146232.06
2023-02-13T14:34:43.645Z,146188.25
2023-02-13T14:37:10.693Z,146236.94
2023-02-13T14:39:41.905Z,146239.34
2023-02-13T14:42:29.900Z,146222.28
2023-02-13T14:45:00.510Z,146197.97
2023-02-13T14:47:36.286Z,146134.69
2023-02-13T14:50:05.701Z,146222.28
2023-02-13T14:52:42.812Z,146199.19
2023-02-13T14:55:20.652Z,146215.03
2023-02-13T14:57:54.500Z,146090.91
2023-02-13T15:00:25.310Z,146183.38
2023-02-13T15:02:58.727Z,146188.25
2023-02-13T15:05:32.674Z,146178.50
2023-02-13T15:08:40.788Z,146174.84
2023-02-13T15:11:35.722Z,146174.84
2023-02-13T15:14:35.051Z,146146.88
2023-02-13T15:17:10.597Z,146134.69
2023-02-13T15:19:43.551Z,146107.91
2023-02-13T15:22:39.718Z,146132.28
2023-02-13T15:25:29.471Z,146098.19
2023-02-13T15:28:15.968Z,146099.44
2023-02-13T15:30:54.041Z,146081.19
2023-02-13T15:33:24.419Z,146034.88
2023-02-13T15:36:05.463Z,146044.66
2023-02-13T15:38:36.736Z,145893.78
2023-02-13T15:41:21.146Z,146004.50
2023-02-13T15:43:55.832Z,145995.97
2023-02-13T15:46:36.514Z,145871.94
2023-02-13T15:49:10.472Z,145946.09
2023-02-13T15:51:37.670Z,145942.44
2023-02-13T15:54:23.588Z,145923.00
2023-02-13T15:56:55.850Z,145903.56
2023-02-13T15:59:26.154Z,145864.63
2023-02-13T16:01:53.884Z,145876.81
2023-02-13T16:04:22.569Z,145833.03
2023-02-13T16:06:53.739Z,145854.91
2023-02-13T16:09:34.664Z,145755.22
2023-02-13T16:12:16.661Z,145707.84
2023-02-13T16:14:57.015Z,145772.25
2023-02-13T16:17:31.792Z,145774.66
2023-02-13T16:20:01.814Z,145745.50
2023-02-13T16:22:31.772Z,145739.44
2023-02-13T16:25:27.808Z,145733.34
2023-02-13T16:27:58.035Z,145713.91
2023-02-13T16:30:33.370Z,145691.97
2023-02-13T16:33:16.068Z,145657.97
2023-02-13T16:35:45.442Z,145645.81
2023-02-13T16:38:38.487Z,145638.56
2023-02-13T16:41:06.579Z,145621.53
2023-02-13T16:43:37.767Z,145615.44
2023-02-13T16:46:14.945Z,145587.50
2023-02-13T16:48:48.014Z,145572.91
2023-02-13T16:51:16.694Z,145487.88
2023-02-13T16:53:43.814Z,145524.31
2023-02-13T16:56:11.436Z,145500.03
2023-02-13T16:58:38.573Z,145473.31
2023-02-13T17:01:06.028Z,145339.78
2023-02-13T17:03:33.202Z,145451.44
2023-02-13T17:06:02.298Z,145421.13
2023-02-13T17:08:32.048Z,145364.03
2023-02-13T17:11:05.499Z,145376.19
2023-02-13T17:13:35.338Z,145361.63
2023-02-13T17:16:02.395Z,145336.13
2023-02-13T17:18:29.740Z,145281.50
2023-02-13T17:20:57.380Z,145293.66
2023-02-13T17:23:25.531Z,145300.91
2023-02-13T17:25:54.010Z,145290.00
2023-02-13T17:28:27.688Z,145163.75
2023-02-13T17:30:57.868Z,145249.91
2023-02-13T17:33:27.858Z,145242.66
2023-02-13T17:35:55.485Z,145218.34
2023-02-13T17:38:22.943Z,145167.41
2023-02-13T17:40:50.369Z,145167.41
2023-02-13T17:43:19.547Z,145156.50
2023-02-13T17:45:47.838Z,145150.41
2023-02-13T17:48:15.753Z,145133.44
2023-02-13T17:50:43.088Z,145124.94
2023-02-13T17:53:39.871Z,145087.31
2023-02-13T17:56:06.932Z,144968.47
2023-02-13T17:58:35.007Z,144947.88
2023-02-13T18:01:02.384Z,145021.84
2023-02-13T18:03:29.601Z,145029.13
2023-02-13T18:05:56.762Z,144916.34
2023-02-13T18:08:23.947Z,144830.28
2023-02-13T18:10:52.086Z,144759.97
2023-02-13T18:13:19.142Z,144887.22
2023-02-13T18:15:46.441Z,144906.66
2023-02-13T18:18:15.858Z,144953.94
2023-02-13T18:20:43.680Z,144929.69
2023-02-13T18:23:11.197Z,144936.94
2023-02-13T18:25:38.218Z,144883.63
2023-02-13T18:28:05.410Z,144883.63
2023-02-13T18:30:32.488Z,144878.78
2023-02-13T18:32:59.550Z,144864.22
2023-02-13T18:35:27.294Z,144859.34
2023-02-13T18:37:54.411Z,144785.44
2023-02-13T18:40:22.485Z,144839.97
2023-02-13T18:42:51.084Z,144749.09
2023-02-13T18:45:18.437Z,144816.97
2023-02-13T18:47:45.457Z,144799.97
2023-02-13T18:50:12.643Z,144769.72
2023-02-13T18:52:39.795Z,144752.72
2023-02-13T18:55:07.379Z,144703.06
2023-02-13T18:57:34.833Z,144692.16
2023-02-13T19:00:03.212Z,144665.47
2023-02-13T19:02:32.865Z,144672.75
2023-02-13T19:05:00.986Z,144641.22
2023-02-13T19:07:28.348Z,144676.41
2023-02-13T19:09:55.723Z,144660.63
2023-02-13T19:12:23.284Z,144480.16
2023-02-13T19:14:50.557Z,144633.97
2023-02-13T19:17:17.833Z,144660.63
2023-02-13T19:19:46.902Z,144625.47
2023-02-13T19:22:14.216Z,144665.47
2023-02-13T19:24:41.811Z,144551.63
2023-02-13T19:27:08.876Z,144613.34
2023-02-13T19:29:35.916Z,144607.31
2023-02-13T19:32:03.375Z,144646.06
2023-02-13T19:34:32.526Z,144482.56
2023-02-13T19:36:59.510Z,144477.72
2023-02-13T19:39:26.576Z,144549.19
2023-02-13T19:41:53.696Z,144532.22
2023-02-13T19:44:20.876Z,144587.94
2023-02-13T19:46:48.014Z,144585.50
2023-02-13T19:49:15.210Z,144570.97
2023-02-13T19:51:42.432Z,144408.72
2023-02-13T19:54:11.051Z,144540.69
2023-02-13T19:56:39.676Z,144522.53
2023-02-13T19:59:07.795Z,144505.59
2023-02-13T20:01:35.208Z,144338.56
2023-02-13T20:04:02.343Z,144478.97
2023-02-13T20:06:35.752Z,144292.59
2023-02-13T20:09:13.384Z,144331.28
2023-02-13T20:11:41.396Z,144418.41
2023-02-13T20:14:14.454Z,144396.66
2023-02-13T20:16:42.933Z,144370.03
2023-02-13T20:19:11.642Z,144370.03
2023-02-13T20:21:41.343Z,144367.59
2023-02-13T20:24:10.144Z,144328.88
2023-02-13T20:26:37.281Z,144292.59
2023-02-13T20:29:04.692Z,144308.28
2023-02-13T20:31:34.216Z,144310.75
2023-02-13T20:34:01.735Z,144253.84
2023-02-13T20:36:31.471Z,144280.47
2023-02-13T20:39:01.237Z,144250.22
2023-02-13T20:41:30.666Z,144140.16
2023-02-13T20:43:59.503Z,144242.97
2023-02-13T20:46:27.130Z,144142.59
2023-02-13T20:48:54.206Z,144244.19
2023-02-13T20:51:21.281Z,144223.59
2023-02-13T20:53:48.313Z,144159.50
2023-02-13T20:56:17.050Z,144178.88
2023-02-13T20:58:45.702Z,144165.56
2023-02-13T21:01:15.763Z,144157.09
2023-02-13T21:03:43.304Z,144067.59
2023-02-13T21:06:11.494Z,144142.59
2023-02-13T21:08:39.259Z,144086.94
2023-02-13T21:11:07.950Z,144149.81
2023-02-13T21:13:35.935Z,144084.53
2023-02-13T21:16:22.410Z,144117.19
2023-02-13T21:18:52.698Z,144082.09
2023-02-13T21:21:22.437Z,143974.50
2023-02-13T21:23:53.200Z,144091.78
2023-02-13T21:26:21.257Z,144059.13
2023-02-13T21:28:50.482Z,144053.09
2023-02-13T21:31:29.160Z,144033.78
2023-02-13T21:34:03.002Z,144004.72
2023-02-13T21:36:31.185Z,144016.84
2023-02-13T21:38:58.579Z,143795.69
2023-02-13T21:41:26.136Z,143925.00
2023-02-13T21:43:53.422Z,143982.97
2023-02-13T21:46:26.521Z,143984.22
2023-02-13T21:48:58.697Z,143979.38
2023-02-13T21:51:27.356Z,143979.38
2023-02-13T21:53:55.104Z,143991.44
2023-02-13T21:56:25.257Z,143941.88
2023-02-13T21:58:53.557Z,143984.22
2023-02-13T22:01:29.924Z,143973.31
2023-02-13T22:04:00.930Z,143952.78
2023-02-13T22:06:30.450Z,143806.53
2023-02-13T22:08:59.658Z,143869.38
2023-02-13T22:11:27.430Z,143887.50
2023-02-13T22:13:56.787Z,143916.53
2023-02-13T22:16:24.356Z,143885.09
2023-02-13T22:18:51.504Z,143888.75
2023-02-13T22:21:21.228Z,143892.31
2023-02-13T22:23:50.095Z,143888.75
2023-02-13T22:26:20.224Z,143817.44
2023-02-13T22:28:47.751Z,143852.47
2023-02-13T22:31:15.535Z,143683.34
2023-02-13T22:33:42.983Z,143834.38
2023-02-13T22:36:12.921Z,143817.44
2023-02-13T22:38:41.157Z,143786.03
2023-02-13T22:41:13.861Z,143799.31
2023-02-13T22:43:41.428Z,143828.28
2023-02-13T22:46:16.519Z,143837.94
2023-02-13T22:48:46.298Z,143759.44
2023-02-13T22:51:19.275Z,143782.41
2023-02-13T22:53:48.453Z,143775.13
2023-02-13T23:00:23.077Z,143763.09
2023-02-13T23:02:50.875Z,143741.34
2023-02-13T23:05:18.081Z,143670.06
2023-02-13T23:07:45.054Z,143731.69
2023-02-13T23:10:12.168Z,143726.84
2023-02-13T23:12:40.498Z,143699.06
2023-02-13T23:15:12.769Z,143731.69
2023-02-13T23:18:00.240Z,143726.84
2023-02-13T23:20:27.992Z,143722.03
2023-02-13T23:22:55.140Z,143633.84
2023-02-13T23:25:22.770Z,143728.03
2023-02-13T23:27:49.784Z,143726.84
2023-02-13T23:30:19.086Z,143715.94
2023-02-13T23:32:46.211Z,143649.56
2023-02-13T23:35:13.259Z,143730.47
2023-02-13T23:37:40.404Z,143591.63
2023-02-13T23:40:08.712Z,143618.19
2023-02-13T23:42:35.707Z,143677.34
2023-02-13T23:45:02.996Z,143665.25
2023-02-13T23:47:29.991Z,143613.34
2023-02-13T23:49:57.007Z,143632.66
2023-02-13T23:52:24.224Z,143625.41
2023-02-13T23:54:51.408Z,143572.31
2023-02-13T23:57:18.896Z,143595.25
2023-02-13T23:59:46.018Z,143642.31
